Time;durP1;ratioP1;P1;durP2;ratioP2;P2;SDS_P1;SDS_P2;PMS_P1;PMS_P2;Temp;Humidity;BMP_temperature;BMP_pressure;BME280_temperature;BME280_humidity;BME280_pressure;Samples;Min_cycle;Max_cycle;Signal;HPM_P1;HPM_P2
2020/12/16 00:01:27;;;;;;;0.10;0.10;;;9.40;99.90;;;;;;5055132;28;20072;-94
2020/12/16 00:03:53;;;;;;;0.25;0.25;;;9.30;99.90;;;;;;5055014;28;20020;-94
2020/12/16 00:06:18;;;;;;;0.10;0.10;;;9.30;99.90;;;;;;5054773;28;20075;-94
2020/12/16 00:08:44;;;;;;;0.13;0.13;;;9.30;99.90;;;;;;5054973;28;20108;-94
2020/12/16 00:11:10;;;;;;;0.43;0.43;;;9.30;99.90;;;;;;5054935;28;20021;-95
2020/12/16 00:13:36;;;;;;;0.45;0.45;;;9.30;99.90;;;;;;5038383;28;20071;-94
2020/12/16 00:16:02;;;;;;;0.20;0.20;;;9.30;99.90;;;;;;5054875;28;20033;-94
2020/12/16 00:18:28;;;;;;;0.10;0.10;;;9.20;99.90;;;;;;5054586;28;20073;-95
2020/12/16 00:20:54;;;;;;;0.10;0.10;;;9.10;99.90;;;;;;5054651;28;20025;-95
2020/12/16 00:23:20;;;;;;;0.10;0.10;;;9.10;99.90;;;;;;5054570;28;20028;-94
2020/12/16 00:25:46;;;;;;;0.10;0.10;;;9.00;99.90;;;;;;5054643;28;20033;-95
2020/12/16 00:28:11;;;;;;;1.15;0.80;;;8.90;99.90;;;;;;5054632;28;20025;-95
2020/12/16 00:30:38;;;;;;;0.30;0.30;;;8.90;99.90;;;;;;5060785;28;20028;-95
2020/12/16 00:33:03;;;;;;;0.10;0.10;;;8.90;99.90;;;;;;5074311;28;20046;-95
2020/12/16 00:35:29;;;;;;;0.15;0.15;;;8.80;99.90;;;;;;5057869;28;20575;-94
2020/12/16 00:37:57;;;;;;;0.25;0.25;;;9.00;99.90;;;;;;5057818;28;20070;-95
2020/12/16 00:40:24;;;;;;;0.20;0.20;;;9.10;99.90;;;;;;5057943;28;20021;-95
2020/12/16 00:42:51;;;;;;;0.22;0.22;;;9.00;99.90;;;;;;5057754;28;20068;-96
2020/12/16 00:45:17;;;;;;;;;;;9.00;99.90;;;;;;5058056;28;20029;-96
2020/12/16 00:47:44;;;;;;;0.03;0.03;;;8.90;99.90;;;;;;5057398;28;19905;-96
2020/12/16 00:50:10;;;;;;;0.10;0.10;;;8.80;99.90;;;;;;5057769;28;20025;-95
2020/12/16 00:52:37;;;;;;;0.10;0.10;;;8.70;99.90;;;;;;5057238;28;20024;-95
2020/12/16 00:55:04;;;;;;;0.05;0.05;;;8.60;99.90;;;;;;5057504;28;20039;-95
2020/12/16 00:57:30;;;;;;;0.17;0.17;;;8.60;99.90;;;;;;5057427;28;20039;-95
2020/12/16 00:59:56;;;;;;;0.00;0.00;;;8.60;99.90;;;;;;5057447;28;20060;-95
2020/12/16 01:02:22;;;;;;;0.00;0.00;;;8.70;99.90;;;;;;5057053;28;20032;-95
2020/12/16 01:04:48;;;;;;;0.10;0.10;;;8.60;99.90;;;;;;5057320;28;20385;-95
2020/12/16 01:07:14;;;;;;;0.10;0.10;;;8.50;99.90;;;;;;5056403;28;20025;-93
2020/12/16 01:09:39;;;;;;;0.20;0.20;;;8.50;99.90;;;;;;5058902;28;20048;-93
2020/12/16 01:12:05;;;;;;;0.10;0.10;;;8.40;99.90;;;;;;5072743;28;20025;-93
2020/12/16 01:14:31;;;;;;;0.10;0.10;;;8.70;99.90;;;;;;5071862;28;20028;-93
2020/12/16 01:16:57;;;;;;;0.28;0.28;;;8.60;99.90;;;;;;5050109;28;20504;-94
2020/12/16 01:19:23;;;;;;;0.10;0.10;;;8.60;99.90;;;;;;5040061;28;20057;-93
2020/12/16 01:21:49;;;;;;;0.20;0.20;;;8.60;99.90;;;;;;5043116;28;20070;-93
2020/12/16 01:24:15;;;;;;;0.10;0.10;;;8.70;99.90;;;;;;5035457;28;20029;-93
2020/12/16 01:26:46;;;;;;;0.10;0.10;;;8.70;99.90;;;;;;5054549;28;20021;-94
2020/12/16 01:29:15;;;;;;;0.10;0.10;;;8.60;99.90;;;;;;5055299;28;20024;-93
2020/12/16 01:31:46;;;;;;;0.15;0.15;;;8.70;99.90;;;;;;5050652;28;20044;-93
2020/12/16 01:34:12;;;;;;;0.20;0.20;;;8.70;99.90;;;;;;5053733;28;20459;-85
2020/12/16 01:36:39;;;;;;;0.00;0.00;;;8.70;99.90;;;;;;5050633;28;20025;-84
2020/12/16 01:39:06;;;;;;;;;;;9.00;99.90;;;;;;5069667;28;20071;-85
2020/12/16 01:41:32;;;;;;;0.10;0.10;;;9.30;99.90;;;;;;5054846;28;20039;-85
2020/12/16 01:44:11;;;;;;;0.00;0.00;;;9.50;99.90;;;;;;5069178;28;20541;-84
2020/12/16 01:46:37;;;;;;;0.15;0.15;;;9.60;99.90;;;;;;5052400;28;20581;-84
2020/12/16 01:49:02;;;;;;;0.10;0.10;;;9.70;99.90;;;;;;5058091;28;20115;-84
2020/12/16 01:51:29;;;;;;;0.28;0.28;;;9.70;99.90;;;;;;5059436;28;20489;-84
2020/12/16 01:53:56;;;;;;;;;;;9.60;99.90;;;;;;5062294;28;20032;-85
2020/12/16 01:56:25;;;;;;;0.65;0.63;;;9.20;99.90;;;;;;5060065;28;20398;-85
2020/12/16 01:58:53;;;;;;;0.10;0.10;;;8.70;99.90;;;;;;5068598;28;20029;-85
2020/12/16 02:01:22;;;;;;;0.00;0.00;;;8.40;99.90;;;;;;5068893;28;20028;-85
2020/12/16 02:03:53;;;;;;;0.15;0.15;;;8.40;99.90;;;;;;5066154;28;20060;-84
2020/12/16 02:06:20;;;;;;;2.92;1.75;;;8.60;99.90;;;;;;5064166;28;20059;-85
2020/12/16 02:08:49;;;;;;;;;;;8.50;99.90;;;;;;5048278;28;20039;-85
2020/12/16 02:11:15;;;;;;;0.10;0.10;;;8.40;99.90;;;;;;5060173;28;19955;-85
2020/12/16 02:13:40;;;;;;;0.10;0.10;;;8.30;99.90;;;;;;5064327;28;20064;-84
2020/12/16 02:16:07;;;;;;;0.65;0.65;;;8.20;99.90;;;;;;5068571;28;20444;-84
2020/12/16 02:18:32;;;;;;;0.20;0.20;;;8.20;99.90;;;;;;5050352;28;20040;-84
2020/12/16 02:20:59;;;;;;;0.10;0.10;;;8.20;99.90;;;;;;5049735;28;20086;-84
2020/12/16 02:23:27;;;;;;;0.00;0.00;;;8.10;99.90;;;;;;5055451;28;20029;-84
2020/12/16 02:25:53;;;;;;;0.10;0.10;;;8.10;99.90;;;;;;5066437;28;20119;-85
2020/12/16 02:28:19;;;;;;;0.10;0.10;;;8.10;99.90;;;;;;5054685;28;20086;-85
2020/12/16 02:30:45;;;;;;;0.63;0.63;;;8.10;99.90;;;;;;5064070;28;20040;-85
2020/12/16 02:33:11;;;;;;;0.22;0.22;;;8.20;99.90;;;;;;5068730;28;20098;-85
2020/12/16 02:35:38;;;;;;;0.00;0.00;;;8.10;99.90;;;;;;5052967;28;20104;-85
2020/12/16 02:38:04;;;;;;;0.10;0.10;;;8.10;99.90;;;;;;5055230;28;20052;-85
2020/12/16 02:40:30;;;;;;;0.08;0.08;;;8.10;99.90;;;;;;5042408;28;20400;-85
2020/12/16 02:42:55;;;;;;;0.10;0.10;;;8.10;99.90;;;;;;5064830;28;20033;-85
2020/12/16 02:45:21;;;;;;;0.10;0.10;;;8.00;99.90;;;;;;5066186;28;20550;-85
2020/12/16 02:47:47;;;;;;;0.10;0.10;;;7.90;99.90;;;;;;5053767;28;20548;-85
2020/12/16 02:50:13;;;;;;;0.10;0.10;;;7.90;99.90;;;;;;5067532;28;21020;-85
2020/12/16 02:52:38;;;;;;;0.00;0.00;;;7.80;99.90;;;;;;5070999;28;20580;-85
2020/12/16 02:55:04;;;;;;;0.03;0.03;;;7.80;99.90;;;;;;5071342;28;20017;-85
2020/12/16 02:57:30;;;;;;;0.00;0.00;;;7.80;99.90;;;;;;5072163;28;20021;-84
2020/12/16 02:59:58;;;;;;;0.00;0.00;;;7.80;99.90;;;;;;5062402;28;20029;-84
2020/12/16 03:02:24;;;;;;;0.10;0.10;;;7.70;99.90;;;;;;5068449;28;20480;-84
2020/12/16 03:04:51;;;;;;;0.10;0.10;;;7.70;99.90;;;;;;5071264;28;20031;-84
2020/12/16 03:07:16;;;;;;;0.00;0.00;;;7.60;99.90;;;;;;5056108;28;20086;-85
2020/12/16 03:09:42;;;;;;;0.10;0.10;;;7.60;99.90;;;;;;5072122;28;20028;-84
2020/12/16 03:12:08;;;;;;;0.20;0.20;;;7.60;99.90;;;;;;5054309;28;20461;-84
2020/12/16 03:14:34;;;;;;;0.10;0.10;;;7.50;99.90;;;;;;5064878;28;20021;-84
2020/12/16 03:17:00;;;;;;;0.10;0.10;;;7.50;99.90;;;;;;5062141;28;20027;-84
2020/12/16 03:19:26;;;;;;;0.10;0.10;;;7.60;99.90;;;;;;5070797;28;20049;-84
2020/12/16 03:21:53;;;;;;;0.10;0.10;;;7.50;99.90;;;;;;5072247;28;20036;-85
2020/12/16 03:24:20;;;;;;;0.10;0.10;;;7.60;99.90;;;;;;5070625;28;20025;-85
2020/12/16 03:26:47;;;;;;;0.10;0.10;;;7.70;99.90;;;;;;5067674;28;20387;-84
2020/12/16 03:29:12;;;;;;;0.07;0.07;;;7.50;99.90;;;;;;5064338;28;20096;-84
2020/12/16 03:31:38;;;;;;;0.10;0.10;;;7.40;99.90;;;;;;5063513;28;20350;-84
2020/12/16 03:34:04;;;;;;;0.20;0.20;;;7.30;99.90;;;;;;5071320;28;20059;-84
2020/12/16 03:36:30;;;;;;;0.10;0.10;;;7.40;99.90;;;;;;5071641;28;20082;-84
2020/12/16 03:38:56;;;;;;;0.10;0.10;;;7.40;99.90;;;;;;5070816;28;20083;-83
2020/12/16 03:41:22;;;;;;;0.60;0.60;;;7.40;99.90;;;;;;5071213;28;20025;-84
2020/12/16 03:43:49;;;;;;;0.10;0.10;;;7.30;99.90;;;;;;5057211;28;20024;-84
2020/12/16 03:46:14;;;;;;;;;;;7.40;99.90;;;;;;5064395;28;20037;-84
2020/12/16 03:48:41;;;;;;;0.20;0.20;;;7.20;99.90;;;;;;5052192;28;19912;-84
2020/12/16 03:51:09;;;;;;;0.13;0.13;;;7.20;99.90;;;;;;5070107;28;20493;-84
2020/12/16 03:53:37;;;;;;;0.10;0.10;;;7.20;99.90;;;;;;5067387;28;20032;-84
2020/12/16 03:56:10;;;;;;;0.10;0.10;;;7.30;99.90;;;;;;5045831;28;20025;-83
2020/12/16 03:58:43;;;;;;;0.85;0.50;;;7.30;99.90;;;;;;5049651;28;20060;-83
2020/12/16 04:01:10;;;;;;;0.10;0.10;;;7.40;99.90;;;;;;5057247;28;20023;-84
2020/12/16 04:03:36;;;;;;;0.32;0.32;;;7.30;99.90;;;;;;5069941;28;20631;-84
2020/12/16 04:06:05;;;;;;;0.10;0.10;;;7.30;99.90;;;;;;5041665;28;20115;-83
2020/12/16 04:08:31;;;;;;;0.10;0.10;;;7.20;99.90;;;;;;5070855;28;20505;-84
2020/12/16 04:10:57;;;;;;;0.77;0.77;;;7.10;99.90;;;;;;5050882;28;20056;-83
2020/12/16 04:13:22;;;;;;;0.10;0.10;;;7.10;99.90;;;;;;5041421;28;20036;-84
2020/12/16 04:15:48;;;;;;;0.10;0.10;;;7.10;99.90;;;;;;5052445;28;20056;-83
2020/12/16 04:18:14;;;;;;;0.10;0.10;;;7.00;99.90;;;;;;5069772;28;20052;-83
2020/12/16 04:20:40;;;;;;;0.10;0.10;;;7.00;99.90;;;;;;5069291;28;20454;-83
2020/12/16 04:23:06;;;;;;;0.10;0.10;;;7.20;99.90;;;;;;5046750;28;20106;-84
2020/12/16 04:25:33;;;;;;;0.10;0.10;;;7.20;99.90;;;;;;5061379;28;20558;-84
2020/12/16 04:27:59;;;;;;;0.10;0.10;;;7.30;99.90;;;;;;5067168;28;20047;-84
2020/12/16 04:30:25;;;;;;;0.15;0.15;;;7.30;99.90;;;;;;5069790;28;20679;-84
2020/12/16 04:32:56;;;;;;;0.10;0.10;;;7.30;99.90;;;;;;5068066;28;20101;-84
2020/12/16 04:35:22;;;;;;;0.10;0.10;;;7.40;99.90;;;;;;5044504;28;20016;-84
2020/12/16 04:37:48;;;;;;;0.32;0.32;;;7.40;99.90;;;;;;5059896;28;20732;-84
2020/12/16 04:40:15;;;;;;;0.13;0.13;;;7.40;99.90;;;;;;5066092;28;20028;-84
2020/12/16 04:42:41;;;;;;;1.33;1.23;;;7.20;99.90;;;;;;5069999;28;20521;-84
2020/12/16 04:45:08;;;;;;;0.25;0.20;;;7.20;99.90;;;;;;5068873;28;20082;-84
2020/12/16 04:47:34;;;;;;;0.00;0.00;;;7.10;99.90;;;;;;5052179;28;20031;-84
2020/12/16 04:50:00;;;;;;;0.10;0.10;;;6.90;99.90;;;;;;5065368;28;20030;-84
2020/12/16 04:52:28;;;;;;;0.40;0.30;;;7.00;99.90;;;;;;5059539;28;20029;-84
2020/12/16 04:54:54;;;;;;;0.13;0.13;;;7.00;99.90;;;;;;5061834;28;20025;-84
2020/12/16 04:57:24;;;;;;;0.08;0.08;;;7.00;99.90;;;;;;5069094;28;20032;-85
2020/12/16 04:59:56;;;;;;;0.30;0.30;;;7.00;99.90;;;;;;5066866;28;20494;-84
2020/12/16 05:02:22;;;;;;;0.10;0.10;;;7.00;99.90;;;;;;5069142;28;20060;-84
2020/12/16 05:04:51;;;;;;;0.20;0.20;;;7.20;99.90;;;;;;5067005;28;20044;-85
2020/12/16 05:07:30;;;;;;;0.10;0.10;;;7.20;99.90;;;;;;5065826;28;20577;-85
2020/12/16 05:09:56;;;;;;;0.10;0.10;;;7.30;99.90;;;;;;5067327;28;20074;-86
2020/12/16 05:12:22;;;;;;;0.10;0.10;;;7.20;99.90;;;;;;5051024;28;20035;-85
2020/12/16 05:14:48;;;;;;;0.10;0.10;;;7.20;99.90;;;;;;5038520;28;20032;-85
2020/12/16 05:17:14;;;;;;;0.10;0.10;;;7.20;99.90;;;;;;5039217;28;20029;-85
2020/12/16 05:19:45;;;;;;;0.25;0.25;;;7.20;99.90;;;;;;5048483;28;20068;-85
2020/12/16 05:22:12;;;;;;;0.10;0.10;;;7.10;99.90;;;;;;5050613;28;20142;-85
2020/12/16 05:24:38;;;;;;;0.13;0.13;;;7.10;99.90;;;;;;5050716;28;20032;-85
2020/12/16 05:27:07;;;;;;;0.10;0.10;;;7.10;99.90;;;;;;5068544;28;20024;-85
2020/12/16 05:29:33;;;;;;;0.10;0.10;;;7.00;99.90;;;;;;5040150;28;20086;-85
2020/12/16 05:32:17;;;;;;;0.10;0.10;;;6.90;99.90;;;;;;5053261;28;20029;-84
2020/12/16 05:34:43;;;;;;;0.40;0.40;;;6.90;99.90;;;;;;5068157;28;20124;-84
2020/12/16 05:37:36;;;;;;;0.20;0.20;;;7.00;99.90;;;;;;5068772;28;20138;-84
2020/12/16 05:40:12;;;;;;;0.10;0.10;;;7.00;99.90;;;;;;5050372;28;20382;-84
2020/12/16 05:42:39;;;;;;;0.10;0.10;;;6.90;99.90;;;;;;5064223;28;20067;-88
2020/12/16 05:45:15;;;;;;;;;;;6.90;99.90;;;;;;5054384;28;20033;-87
2020/12/16 05:47:56;;;;;;;1.80;0.98;;;6.90;99.90;;;;;;5048625;28;19908;-89
2020/12/16 05:50:22;;;;;;;0.10;0.10;;;7.00;99.90;;;;;;5052647;28;20539;-88
2020/12/16 05:52:47;;;;;;;0.10;0.10;;;7.20;99.90;;;;;;5057575;28;20028;-87
2020/12/16 05:55:27;;;;;;;0.43;0.43;;;7.20;99.90;;;;;;5049723;28;20471;-86
2020/12/16 05:58:12;;;;;;;0.00;0.00;;;7.10;99.90;;;;;;5060024;28;20097;-85
2020/12/16 06:00:43;;;;;;;0.10;0.10;;;7.00;99.90;;;;;;5042519;28;20032;-85
2020/12/16 06:03:36;;;;;;;0.10;0.10;;;7.00;99.90;;;;;;5046599;28;20723;-88
2020/12/16 06:06:05;;;;;;;0.00;0.00;;;7.10;99.90;;;;;;5043940;28;20040;-90
2020/12/16 06:08:37;;;;;;;0.10;0.10;;;7.00;99.90;;;;;;5041636;28;20694;-91
2020/12/16 06:11:05;;;;;;;0.47;0.47;;;7.00;99.90;;;;;;5047149;28;20028;-89
2020/12/16 06:13:31;;;;;;;0.10;0.10;;;7.00;99.90;;;;;;5056531;28;20158;-88
2020/12/16 06:16:04;;;;;;;0.10;0.10;;;6.90;99.90;;;;;;5064783;28;20105;-88
2020/12/16 06:18:37;;;;;;;0.65;0.65;;;6.90;99.90;;;;;;5060261;28;20497;-87
2020/12/16 06:21:07;;;;;;;0.60;0.60;;;6.90;99.90;;;;;;5050241;28;20025;-88
2020/12/16 06:23:42;;;;;;;0.50;0.50;;;6.80;99.90;;;;;;5049984;28;20115;-87
2020/12/16 06:26:12;;;;;;;0.10;0.10;;;6.70;99.90;;;;;;5057096;28;20028;-89
2020/12/16 06:28:38;;;;;;;0.10;0.10;;;6.80;99.90;;;;;;5031249;28;20036;-91
2020/12/16 06:31:19;;;;;;;0.03;0.03;;;6.90;99.90;;;;;;5056129;28;20090;-88
2020/12/16 06:34:02;;;;;;;0.52;0.52;;;6.90;99.90;;;;;;5066053;28;20033;-87
2020/12/16 06:36:41;;;;;;;0.10;0.10;;;6.80;99.90;;;;;;5053668;28;20104;-88
2020/12/16 06:39:17;;;;;;;0.10;0.10;;;7.10;99.90;;;;;;5037267;28;20024;-89
2020/12/16 06:41:56;;;;;;;0.10;0.10;;;6.90;99.90;;;;;;5054885;28;20021;-88
2020/12/16 06:44:22;;;;;;;0.10;0.10;;;6.90;99.90;;;;;;5070020;28;20270;-88
2020/12/16 06:46:51;;;;;;;0.52;0.52;;;6.80;99.90;;;;;;5049069;28;20032;-88
2020/12/16 06:49:23;;;;;;;0.10;0.10;;;6.60;99.90;;;;;;5044474;28;20389;-87
2020/12/16 06:52:10;;;;;;;0.25;0.25;;;6.80;99.90;;;;;;5069662;28;20035;-88
2020/12/16 06:54:45;;;;;;;0.20;0.20;;;6.80;99.90;;;;;;5049143;28;20444;-89
2020/12/16 06:57:14;;;;;;;0.30;0.30;;;6.80;99.90;;;;;;5046554;28;20075;-89
2020/12/16 06:59:54;;;;;;;0.05;0.05;;;6.90;99.90;;;;;;5044672;28;20111;-88
2020/12/16 07:02:30;;;;;;;0.10;0.10;;;6.80;99.90;;;;;;5069693;28;20024;-90
2020/12/16 07:04:58;;;;;;;0.00;0.00;;;6.70;99.90;;;;;;5049141;28;20020;-89
2020/12/16 07:07:47;;;;;;;0.17;0.17;;;7.10;99.90;;;;;;5067193;28;20536;-88
2020/12/16 07:10:34;;;;;;;0.65;0.40;;;7.00;99.90;;;;;;5063705;28;20051;-87
2020/12/16 07:13:30;;;;;;;0.25;0.25;;;6.80;99.90;;;;;;5046035;28;20137;-87
2020/12/16 07:15:58;;;;;;;0.32;0.32;;;6.80;99.90;;;;;;5067075;28;20020;-87
2020/12/16 07:18:41;;;;;;;0.10;0.10;;;6.80;99.90;;;;;;5050212;28;20056;-88
2020/12/16 07:21:14;;;;;;;0.47;0.47;;;6.80;99.90;;;;;;5043592;28;20142;-89
2020/12/16 07:23:54;;;;;;;0.00;0.00;;;6.80;99.90;;;;;;5063654;28;20060;-90
2020/12/16 07:26:23;;;;;;;0.10;0.10;;;6.90;99.90;;;;;;5068707;28;20055;-89
2020/12/16 07:28:49;;;;;;;0.20;0.20;;;6.90;99.90;;;;;;5062326;28;20055;-88
2020/12/16 07:31:16;;;;;;;0.10;0.10;;;7.00;99.90;;;;;;5055641;28;20552;-90
2020/12/16 07:33:42;;;;;;;0.10;0.10;;;7.00;99.90;;;;;;5073241;28;20028;-90
2020/12/16 07:36:09;;;;;;;0.20;0.20;;;7.10;99.90;;;;;;5052326;28;20430;-90
2020/12/16 07:38:35;;;;;;;;;;;7.40;99.90;;;;;;5054224;28;20035;-90
2020/12/16 07:41:01;;;;;;;0.25;0.25;;;7.30;99.90;;;;;;5063476;28;20364;-92
2020/12/16 07:43:27;;;;;;;0.10;0.10;;;7.30;99.90;;;;;;5049055;28;20032;-89
2020/12/16 07:46:08;;;;;;;0.10;0.10;;;7.30;99.90;;;;;;5052848;28;20039;-89
2020/12/16 07:48:35;;;;;;;0.20;0.20;;;7.40;99.90;;;;;;5069252;28;20038;-89
2020/12/16 07:51:06;;;;;;;0.10;0.10;;;7.50;99.90;;;;;;5052927;28;20507;-90
2020/12/16 07:53:33;;;;;;;0.10;0.10;;;7.70;99.90;;;;;;5069510;28;20029;-91
2020/12/16 07:56:07;;;;;;;0.10;0.10;;;8.10;99.90;;;;;;5039545;28;20141;-91
2020/12/16 07:58:33;;;;;;;0.10;0.10;;;8.70;99.90;;;;;;5067414;28;20619;-90
2020/12/16 08:01:12;;;;;;;0.20;0.20;;;9.10;99.90;;;;;;5071208;28;20115;-91
2020/12/16 08:03:39;;;;;;;0.63;0.63;;;9.90;99.90;;;;;;5071327;28;20060;-91
2020/12/16 08:06:06;;;;;;;0.20;0.20;;;10.60;99.90;;;;;;5071419;28;20082;-91
2020/12/16 08:08:40;;;;;;;0.13;0.13;;;9.90;99.90;;;;;;5052956;28;20044;-91
2020/12/16 08:11:18;;;;;;;1.98;0.80;;;9.70;99.90;;;;;;5071180;28;20097;-91
2020/12/16 08:13:44;;;;;;;0.40;0.40;;;9.50;99.90;;;;;;5070920;28;20025;-91
2020/12/16 08:16:10;;;;;;;0.47;0.47;;;9.60;99.90;;;;;;5070632;28;20016;-90
2020/12/16 08:18:38;;;;;;;0.30;0.30;;;10.00;99.90;;;;;;5052719;28;20513;-90
2020/12/16 08:21:17;;;;;;;0.10;0.10;;;10.40;99.90;;;;;;5052630;28;20024;-91
2020/12/16 08:23:43;;;;;;;0.10;0.10;;;10.90;99.90;;;;;;5069697;28;20043;-91
2020/12/16 08:26:09;;;;;;;0.10;0.10;;;11.90;99.90;;;;;;5053121;28;20089;-91
2020/12/16 08:28:35;;;;;;;0.13;0.13;;;11.60;99.90;;;;;;5066757;28;20037;-91
2020/12/16 08:31:03;;;;;;;0.30;0.30;;;12.40;99.90;;;;;;5059888;28;20119;-91
2020/12/16 08:33:30;;;;;;;0.10;0.10;;;11.80;99.90;;;;;;5071019;28;20028;-92
2020/12/16 08:36:09;;;;;;;0.10;0.10;;;11.60;99.90;;;;;;5053154;28;20028;-91
2020/12/16 08:38:43;;;;;;;0.10;0.10;;;12.20;99.90;;;;;;5056834;28;20029;-91
2020/12/16 08:41:22;;;;;;;0.10;0.10;;;12.30;99.90;;;;;;5052803;28;20024;-91
2020/12/16 08:43:48;;;;;;;0.30;0.30;;;13.70;99.90;;;;;;5071495;28;20109;-91
2020/12/16 08:46:17;;;;;;;0.20;0.20;;;13.60;99.90;;;;;;5054373;28;20107;-91
2020/12/16 08:48:53;;;;;;;0.35;0.35;;;13.30;99.90;;;;;;5050925;28;20028;-91
2020/12/16 08:51:21;;;;;;;0.10;0.10;;;12.80;99.90;;;;;;5058626;28;20028;-91
2020/12/16 08:53:54;;;;;;;0.20;0.20;;;13.10;99.90;;;;;;5056032;28;20082;-90
2020/12/16 08:56:24;;;;;;;0.10;0.10;;;13.30;99.90;;;;;;5070603;28;20029;-92
2020/12/16 08:59:07;;;;;;;0.30;0.30;;;13.20;99.90;;;;;;5069176;28;20060;-91
2020/12/16 09:01:34;;;;;;;1.10;0.52;;;12.40;99.90;;;;;;5069578;28;20032;-90
2020/12/16 09:04:00;;;;;;;0.10;0.10;;;12.70;99.90;;;;;;5051227;28;20090;-91
2020/12/16 09:06:26;;;;;;;0.38;0.38;;;13.40;99.90;;;;;;5057547;28;20056;-90
2020/12/16 09:08:52;;;;;;;0.10;0.10;;;13.00;99.90;;;;;;5069642;28;20024;-91
2020/12/16 09:11:19;;;;;;;0.10;0.10;;;12.50;99.90;;;;;;5051730;28;20013;-89
2020/12/16 09:13:45;;;;;;;0.10;0.10;;;12.60;99.90;;;;;;5051417;28;20028;-90
2020/12/16 09:16:18;;;;;;;0.00;0.00;;;13.20;99.90;;;;;;5054320;28;20087;-90
2020/12/16 09:18:46;;;;;;;0.30;0.30;;;13.40;99.90;;;;;;5069284;28;20103;-91
2020/12/16 09:21:13;;;;;;;0.10;0.10;;;13.20;99.90;;;;;;5069320;28;20025;-90
2020/12/16 09:23:39;;;;;;;;;;;13.30;99.90;;;;;;5064852;28;20029;-90
2020/12/16 09:26:05;;;;;;;0.30;0.30;;;12.90;99.90;;;;;;5064429;28;19962;-90
2020/12/16 09:28:34;;;;;;;0.60;0.60;;;13.20;99.90;;;;;;5069281;28;20031;-91
2020/12/16 09:31:17;;;;;;;0.10;0.10;;;13.20;99.90;;;;;;5069599;28;20527;-90
2020/12/16 09:33:59;;;;;;;0.10;0.10;;;13.90;99.90;;;;;;5050829;28;20401;-91
2020/12/16 09:36:29;;;;;;;0.17;0.17;;;15.60;99.90;;;;;;5059075;28;20086;-91
2020/12/16 09:38:56;;;;;;;0.13;0.13;;;14.30;99.90;;;;;;5064826;28;20115;-90
2020/12/16 09:41:22;;;;;;;0.10;0.10;;;14.10;99.90;;;;;;5067753;28;20033;-91
2020/12/16 09:43:48;;;;;;;0.15;0.15;;;14.40;99.90;;;;;;5051540;28;20031;-91
2020/12/16 09:46:18;;;;;;;1.45;0.38;;;14.80;99.90;;;;;;5051690;28;20065;-91
2020/12/16 09:48:46;;;;;;;0.22;0.22;;;15.10;99.90;;;;;;5051196;28;20056;-91
2020/12/16 09:51:20;;;;;;;0.20;0.20;;;14.00;99.90;;;;;;5069395;28;20032;-91
2020/12/16 09:53:47;;;;;;;0.32;0.32;;;14.70;99.90;;;;;;5069040;28;20544;-91
2020/12/16 09:56:25;;;;;;;;;;;14.20;99.90;;;;;;5069961;28;20038;-91
2020/12/16 09:58:52;;;;;;;0.10;0.10;;;14.00;99.90;;;;;;5069153;28;19995;-91
2020/12/16 10:01:18;;;;;;;0.10;0.10;;;13.10;99.90;;;;;;5051563;28;20021;-91
2020/12/16 10:03:45;;;;;;;0.30;0.30;;;13.70;99.90;;;;;;5057124;28;20033;-92
2020/12/16 10:06:17;;;;;;;0.20;0.20;;;13.10;51.60;;;;;;5069143;28;20039;-92
2020/12/16 10:08:44;;;;;;;0.10;0.10;;;12.60;1.00;;;;;;5068746;28;20071;-91
2020/12/16 10:11:11;;;;;;;0.10;0.10;;;12.70;99.90;;;;;;5069485;28;20055;-91
2020/12/16 10:13:37;;;;;;;0.10;0.10;;;12.20;98.50;;;;;;5067837;28;20060;-91
2020/12/16 10:16:03;;;;;;;0.20;0.20;;;12.90;99.90;;;;;;5069066;28;20097;-91
2020/12/16 10:18:29;;;;;;;0.65;0.65;;;15.50;1.00;;;;;;5068870;28;20044;-91
2020/12/16 10:20:55;;;;;;;0.40;0.40;;;17.30;99.90;;;;;;5056343;28;20549;-92
2020/12/16 10:23:21;;;;;;;0.25;0.25;;;15.10;99.90;;;;;;5069226;28;20028;-91
2020/12/16 10:25:46;;;;;;;0.20;0.20;;;14.10;99.90;;;;;;5068336;28;20029;-90
2020/12/16 10:28:12;;;;;;;0.25;0.25;;;14.70;99.90;;;;;;5068407;28;20035;-90
2020/12/16 10:30:38;;;;;;;0.10;0.10;;;14.90;99.90;;;;;;5068385;28;20063;-91
2020/12/16 10:33:04;;;;;;;0.10;0.10;;;16.00;99.90;;;;;;5068622;28;20056;-91
2020/12/16 10:35:30;;;;;;;0.10;0.10;;;15.20;99.90;;;;;;5035941;28;20288;-93
2020/12/16 10:37:56;;;;;;;0.63;0.63;;;14.80;99.90;;;;;;5043435;28;20025;-93
2020/12/16 10:40:22;;;;;;;1.08;1.08;;;15.10;99.90;;;;;;5053343;28;20485;-92
2020/12/16 10:42:48;;;;;;;0.10;0.10;;;14.80;99.90;;;;;;5058929;28;20404;-93
2020/12/16 10:45:14;;;;;;;0.10;0.10;;;14.70;99.90;;;;;;5052733;28;20029;-93
2020/12/16 10:47:41;;;;;;;0.10;0.10;;;14.40;99.90;;;;;;5056533;28;20039;-92
2020/12/16 10:50:07;;;;;;;0.10;0.10;;;14.80;99.90;;;;;;5050015;28;20320;-92
2020/12/16 10:52:32;;;;;;;9.80;0.65;;;15.20;99.90;;;;;;5049795;28;20120;-91
2020/12/16 10:54:59;;;;;;;0.10;0.10;;;15.00;99.90;;;;;;5047221;28;20370;-91
2020/12/16 10:57:25;;;;;;;0.10;0.10;;;15.00;99.90;;;;;;5069040;28;20572;-91
2020/12/16 10:59:51;;;;;;;0.35;0.35;;;14.30;99.90;;;;;;5060978;28;20263;-91
2020/12/16 11:02:17;;;;;;;0.40;0.40;;;14.90;99.90;;;;;;5072916;28;20042;-90
2020/12/16 11:04:46;;;;;;;0.10;0.10;;;14.70;99.90;;;;;;5055530;28;20024;-91
2020/12/16 11:07:12;;;;;;;0.10;0.10;;;15.10;99.90;;;;;;5055766;28;20509;-90
2020/12/16 11:09:38;;;;;;;0.20;0.20;;;15.30;99.90;;;;;;5069602;28;20025;-91
2020/12/16 11:12:04;;;;;;;0.17;0.17;;;15.50;99.90;;;;;;5055646;28;20052;-91
2020/12/16 11:14:29;;;;;;;2.92;0.65;;;16.60;99.90;;;;;;5056985;28;20020;-91
2020/12/16 11:16:55;;;;;;;0.10;0.10;;;15.80;99.90;;;;;;5073542;28;20029;-92
2020/12/16 11:19:22;;;;;;;0.38;0.38;;;14.90;99.90;;;;;;5069416;28;20044;-92
2020/12/16 11:21:52;;;;;;;0.20;0.20;;;15.40;99.90;;;;;;5045487;28;20031;-92
2020/12/16 11:24:21;;;;;;;0.30;0.30;;;15.60;99.90;;;;;;5059821;28;20028;-90
2020/12/16 11:26:49;;;;;;;0.10;0.10;;;16.00;99.90;;;;;;5068136;28;20031;-90
2020/12/16 11:29:17;;;;;;;0.10;0.10;;;15.20;99.90;;;;;;5061491;28;20130;-90
2020/12/16 11:31:45;;;;;;;0.10;0.10;;;15.60;99.90;;;;;;5045124;28;20038;-89
2020/12/16 11:34:13;;;;;;;0.08;0.08;;;15.60;99.90;;;;;;5051217;28;20493;-89
2020/12/16 11:36:41;;;;;;;0.17;0.17;;;16.20;99.90;;;;;;5042116;28;20035;-90
2020/12/16 11:39:07;;;;;;;0.15;0.15;;;15.70;99.90;;;;;;5055219;28;20409;-90
2020/12/16 11:41:34;;;;;;;0.10;0.10;;;15.10;99.90;;;;;;5044777;28;20024;-96
2020/12/16 11:44:00;;;;;;;;;;;15.30;99.90;;;;;;5053480;28;20028;-90
2020/12/16 11:46:30;;;;;;;0.10;0.10;;;15.20;99.90;;;;;;5067997;28;19984;-90
2020/12/16 11:49:06;;;;;;;0.10;0.10;;;15.50;99.90;;;;;;5042476;28;20599;-91
2020/12/16 11:51:31;;;;;;;0.10;0.10;;;13.90;99.90;;;;;;5045016;28;20036;-90
2020/12/16 11:53:57;;;;;;;0.25;0.25;;;13.70;99.90;;;;;;5046960;28;20413;-91
2020/12/16 11:56:24;;;;;;;0.40;0.40;;;13.70;99.90;;;;;;5053216;28;20523;-90
2020/12/16 11:58:51;;;;;;;0.20;0.20;;;13.90;99.90;;;;;;5061638;28;20021;-92
2020/12/16 12:01:17;;;;;;;0.93;0.85;;;13.80;99.90;;;;;;5051438;28;20025;-92
2020/12/16 12:03:43;;;;;;;0.20;0.20;;;13.90;99.90;;;;;;5046596;28;20502;-89
2020/12/16 12:06:10;;;;;;;0.10;0.10;;;13.90;99.90;;;;;;5046594;28;20033;-90
2020/12/16 12:08:36;;;;;;;;;;;14.00;99.90;;;;;;5065895;28;20071;-89
2020/12/16 12:11:03;;;;;;;0.13;0.13;;;13.90;99.90;;;;;;5060599;28;19912;-92
2020/12/16 12:13:28;;;;;;;0.10;0.10;;;13.90;99.90;;;;;;5054714;28;20040;-91
2020/12/16 12:15:54;;;;;;;0.05;0.05;;;13.80;99.90;;;;;;5041029;28;20017;-92
2020/12/16 12:18:20;;;;;;;0.10;0.10;;;13.90;99.90;;;;;;5055389;28;20126;-92
2020/12/16 12:20:46;;;;;;;0.20;0.20;;;13.80;99.90;;;;;;5045488;28;20108;-92
2020/12/16 12:23:12;;;;;;;0.10;0.10;;;13.90;99.90;;;;;;5064941;28;20019;-92
2020/12/16 12:25:37;;;;;;;1.90;0.98;;;13.90;99.90;;;;;;5043374;28;20028;-91
2020/12/16 12:28:03;;;;;;;0.20;0.20;;;13.90;99.90;;;;;;5070866;28;20509;-91
2020/12/16 12:30:29;;;;;;;0.10;0.10;;;13.90;99.90;;;;;;5068351;28;20055;-92
2020/12/16 12:32:55;;;;;;;0.13;0.13;;;13.90;99.90;;;;;;5069658;28;20044;-91
2020/12/16 12:35:21;;;;;;;0.10;0.10;;;13.90;99.90;;;;;;5064327;28;20565;-91
2020/12/16 12:37:47;;;;;;;0.30;0.30;;;13.90;99.90;;;;;;5052693;28;20021;-92
2020/12/16 12:40:13;;;;;;;0.17;0.17;;;13.90;99.90;;;;;;5044867;28;20028;-91
2020/12/16 12:42:39;;;;;;;0.10;0.10;;;13.90;99.90;;;;;;5045852;28;20032;-91
2020/12/16 12:45:05;;;;;;;0.10;0.10;;;13.90;99.90;;;;;;5043849;28;20040;-90
2020/12/16 12:47:31;;;;;;;0.20;0.20;;;13.90;99.90;;;;;;5055757;28;20059;-92
2020/12/16 12:49:57;;;;;;;2.33;1.00;;;13.90;99.90;;;;;;5054373;28;20032;-91
2020/12/16 12:52:23;;;;;;;0.10;0.10;;;13.90;99.90;;;;;;5070033;28;20032;-91
2020/12/16 12:54:49;;;;;;;0.17;0.17;;;13.90;99.90;;;;;;5071060;28;20581;-91
2020/12/16 12:57:16;;;;;;;1.20;0.80;;;13.90;99.90;;;;;;5042729;28;20025;-91
2020/12/16 12:59:42;;;;;;;1.17;1.08;;;13.80;99.90;;;;;;5064971;28;20254;-92
2020/12/16 13:02:08;;;;;;;0.10;0.10;;;13.70;99.90;;;;;;5070204;28;20024;-91